createdAt,value
2018-06-30T00:01:38.787Z,14.60
2018-06-30T00:04:07.385Z,15.57
2018-06-30T00:06:35.906Z,15.30
2018-06-30T00:09:08.055Z,15.20
2018-06-30T00:11:37.329Z,15.60
2018-06-30T00:14:05.922Z,15.87
2018-06-30T00:16:35.095Z,15.43
2018-06-30T00:19:03.661Z,16.23
2018-06-30T00:21:32.258Z,15.20
2018-06-30T00:24:00.845Z,16.63
2018-06-30T00:26:29.406Z,17.13
2018-06-30T00:28:57.867Z,16.60
2018-06-30T00:31:26.376Z,16.50
2018-06-30T00:33:54.892Z,15.60
2018-06-30T00:36:23.364Z,16.23
2018-06-30T00:38:51.852Z,16.33
2018-06-30T00:41:20.426Z,16.57
2018-06-30T00:43:48.922Z,15.33
2018-06-30T00:46:17.415Z,16.43
2018-06-30T00:48:45.895Z,16.53
2018-06-30T00:51:14.373Z,15.93
2018-06-30T00:53:43.200Z,16.20
2018-06-30T00:56:11.931Z,15.47
2018-06-30T00:58:40.458Z,15.50
2018-06-30T01:01:08.935Z,15.00
2018-06-30T01:03:37.460Z,15.63
2018-06-30T01:06:06.197Z,16.40
2018-06-30T01:08:34.677Z,17.13
2018-06-30T01:11:03.288Z,15.90
2018-06-30T01:13:31.770Z,16.73
2018-06-30T01:16:00.271Z,15.63
2018-06-30T01:18:28.777Z,16.80
2018-06-30T01:20:57.291Z,16.10
2018-06-30T01:23:25.765Z,16.47
2018-06-30T01:25:54.246Z,15.17
2018-06-30T01:28:22.719Z,15.83
2018-06-30T01:30:51.206Z,15.20
2018-06-30T01:33:19.683Z,16.57
2018-06-30T01:35:48.225Z,15.60
2018-06-30T01:38:16.692Z,15.50
2018-06-30T01:40:45.173Z,15.50
2018-06-30T01:43:13.640Z,15.70
2018-06-30T01:45:42.147Z,17.87
2018-06-30T01:48:10.663Z,15.33
2018-06-30T01:50:39.131Z,16.83
2018-06-30T01:53:07.616Z,15.70
2018-06-30T01:55:36.071Z,17.33
2018-06-30T01:58:05.069Z,15.50
2018-06-30T02:00:33.535Z,17.73
2018-06-30T02:03:02.033Z,18.07
2018-06-30T02:05:30.664Z,16.30
2018-06-30T02:07:59.148Z,17.73
2018-06-30T02:10:27.691Z,18.67
2018-06-30T02:12:56.194Z,18.50
2018-06-30T02:15:24.663Z,19.07
2018-06-30T02:17:53.377Z,20.30
2018-06-30T02:20:22.175Z,19.17
2018-06-30T02:22:50.716Z,19.03
2018-06-30T02:25:19.238Z,18.10
2018-06-30T02:27:47.721Z,18.10
2018-06-30T02:30:16.212Z,17.40
2018-06-30T02:32:44.725Z,17.97
2018-06-30T02:35:13.434Z,18.20
2018-06-30T02:37:42.028Z,17.77
2018-06-30T02:40:10.551Z,18.00
2018-06-30T02:42:39.033Z,16.57
2018-06-30T02:45:07.626Z,15.77
2018-06-30T02:47:36.096Z,18.63
2018-06-30T02:50:05.290Z,17.67
2018-06-30T02:52:34.182Z,18.13
2018-06-30T02:55:02.863Z,17.67
2018-06-30T02:57:31.390Z,18.63
2018-06-30T02:59:59.897Z,19.33
2018-06-30T03:02:28.415Z,17.90
2018-06-30T03:04:56.927Z,19.00
2018-06-30T03:07:25.806Z,18.27
2018-06-30T03:09:54.306Z,17.10
2018-06-30T03:12:22.787Z,16.17
2018-06-30T03:14:51.344Z,18.30
2018-06-30T03:17:19.882Z,17.40
2018-06-30T03:19:48.342Z,18.43
2018-06-30T03:22:16.921Z,17.80
2018-06-30T03:24:45.484Z,16.67
2018-06-30T03:27:14.083Z,17.47
2018-06-30T03:29:42.563Z,15.83
2018-06-30T03:32:11.042Z,18.00
2018-06-30T03:34:39.548Z,19.67
2018-06-30T03:37:08.042Z,19.70
2018-06-30T03:39:36.727Z,18.23
2018-06-30T03:42:05.284Z,17.70
2018-06-30T03:44:33.914Z,16.33
2018-06-30T03:47:02.391Z,17.23
2018-06-30T03:49:30.911Z,17.43
2018-06-30T03:51:59.397Z,17.43
2018-06-30T03:54:28.014Z,17.30
2018-06-30T03:56:56.490Z,16.17
2018-06-30T03:59:25.272Z,18.70
2018-06-30T04:01:53.725Z,16.67
2018-06-30T04:04:22.235Z,19.17
2018-06-30T04:06:50.699Z,17.70
2018-06-30T04:09:19.200Z,17.87
2018-06-30T04:11:47.731Z,17.80
2018-06-30T04:14:16.213Z,17.53
2018-06-30T04:16:44.853Z,17.47
2018-06-30T04:19:15.359Z,18.60
2018-06-30T04:21:45.183Z,17.57
2018-06-30T04:24:13.677Z,17.50
2018-06-30T04:26:43.078Z,20.00
2018-06-30T04:29:12.368Z,17.40
2018-06-30T04:31:40.958Z,18.20
2018-06-30T04:34:09.666Z,18.67
2018-06-30T04:36:38.203Z,18.63
2018-06-30T04:39:08.266Z,19.20
2018-06-30T04:41:36.736Z,18.00
2018-06-30T04:44:05.294Z,18.27
2018-06-30T04:46:33.773Z,19.37
2018-06-30T04:49:02.596Z,18.73
2018-06-30T04:51:31.396Z,17.90
2018-06-30T04:54:00.099Z,17.70
2018-06-30T04:56:28.572Z,18.77
2018-06-30T04:58:57.043Z,17.73
2018-06-30T05:01:25.705Z,17.43
2018-06-30T05:03:54.173Z,17.53
2018-06-30T05:06:22.961Z,16.37
2018-06-30T05:08:51.477Z,17.33
2018-06-30T05:11:19.970Z,17.03
2018-06-30T05:13:48.330Z,16.30
2018-06-30T05:16:16.849Z,17.40
2018-06-30T05:18:45.342Z,17.23
2018-06-30T05:21:13.815Z,16.83
2018-06-30T05:23:42.328Z,18.00
2018-06-30T05:26:10.824Z,17.57
2018-06-30T05:28:39.286Z,16.83
2018-06-30T05:31:08.231Z,17.37
2018-06-30T05:33:36.773Z,17.10
2018-06-30T05:36:05.452Z,16.40
2018-06-30T05:38:33.891Z,18.33
2018-06-30T05:41:02.481Z,16.93
2018-06-30T05:43:30.979Z,18.77
2018-06-30T05:45:59.734Z,17.70
2018-06-30T05:48:28.183Z,17.10
2018-06-30T05:50:56.692Z,17.17
2018-06-30T05:53:25.243Z,16.97
2018-06-30T05:55:53.998Z,16.70
2018-06-30T05:58:22.714Z,16.20
2018-06-30T06:00:51.260Z,17.40
2018-06-30T06:03:19.862Z,14.40
2018-06-30T06:05:48.552Z,16.93
2018-06-30T06:08:17.138Z,16.20
2018-06-30T06:10:45.759Z,16.70
2018-06-30T06:13:14.426Z,16.77
2018-06-30T06:15:43.185Z,16.83
2018-06-30T06:18:11.713Z,17.00
2018-06-30T06:20:40.314Z,17.17
2018-06-30T06:23:08.816Z,14.20
2018-06-30T06:25:37.354Z,17.03
2018-06-30T06:28:06.456Z,17.57
2018-06-30T06:30:35.304Z,16.50
2018-06-30T06:33:03.850Z,17.23
2018-06-30T06:35:32.389Z,17.47
2018-06-30T06:38:00.847Z,15.40
2018-06-30T06:40:29.371Z,15.33
2018-06-30T06:42:57.855Z,15.50
2018-06-30T06:45:26.426Z,14.87
2018-06-30T06:47:55.039Z,15.70
2018-06-30T06:50:23.600Z,15.00
2018-06-30T06:52:52.088Z,13.40
2018-06-30T06:55:20.853Z,13.87
2018-06-30T06:57:49.351Z,14.03
2018-06-30T07:00:17.882Z,11.90
2018-06-30T07:02:46.948Z,11.10
2018-06-30T07:05:15.505Z,10.87
2018-06-30T07:07:44.033Z,9.47
2018-06-30T07:10:12.540Z,8.93
2018-06-30T07:12:40.926Z,7.50
2018-06-30T07:15:10.018Z,8.10
2018-06-30T07:17:38.548Z,8.30
2018-06-30T07:20:07.365Z,8.37
2018-06-30T07:22:35.951Z,8.63
2018-06-30T07:25:05.002Z,7.80
2018-06-30T07:27:33.539Z,7.60
2018-06-30T07:30:02.275Z,7.70
2018-06-30T07:32:30.783Z,7.70
2018-06-30T07:34:59.274Z,8.10
2018-06-30T07:37:27.785Z,8.43
2018-06-30T07:39:56.351Z,9.60
2018-06-30T07:42:24.897Z,9.57
2018-06-30T07:44:53.719Z,8.03
2018-06-30T07:47:22.253Z,7.83
2018-06-30T07:49:51.405Z,7.77
2018-06-30T07:52:19.583Z,8.87
2018-06-30T07:54:48.069Z,8.10
2018-06-30T07:57:16.633Z,6.77
2018-06-30T07:59:45.150Z,8.23
2018-06-30T08:02:13.690Z,7.70
2018-06-30T08:04:42.179Z,7.00
2018-06-30T08:07:10.664Z,7.23
2018-06-30T08:09:39.240Z,6.43
2018-06-30T08:12:07.827Z,6.37
2018-06-30T08:14:36.443Z,7.03
2018-06-30T08:17:05.140Z,5.80
2018-06-30T08:19:33.622Z,5.73
2018-06-30T08:22:02.129Z,6.83
2018-06-30T08:24:30.729Z,6.13
2018-06-30T08:26:59.317Z,6.40
2018-06-30T08:29:27.949Z,6.73
2018-06-30T08:31:56.379Z,6.57
2018-06-30T08:34:24.971Z,6.20
2018-06-30T08:36:53.570Z,9.10
2018-06-30T08:39:22.103Z,6.50
2018-06-30T08:41:51.128Z,7.30
2018-06-30T08:44:19.715Z,6.40
2018-06-30T08:46:48.628Z,7.27
2018-06-30T08:49:17.256Z,7.50
2018-06-30T08:51:45.877Z,7.93
2018-06-30T08:54:14.477Z,8.00
2018-06-30T08:56:42.986Z,7.30
2018-06-30T08:59:11.491Z,6.50
2018-06-30T09:01:39.983Z,7.47
2018-06-30T09:04:08.457Z,8.13
2018-06-30T09:06:36.934Z,6.93
2018-06-30T09:09:08.393Z,7.43
2018-06-30T09:11:36.885Z,8.00
2018-06-30T09:14:05.422Z,7.93
2018-06-30T09:16:33.966Z,7.80
2018-06-30T09:19:02.543Z,7.27
2018-06-30T09:21:31.165Z,6.27
2018-06-30T09:23:59.655Z,7.40
2018-06-30T09:26:28.196Z,7.13
2018-06-30T09:28:57.018Z,7.43
2018-06-30T09:31:25.746Z,6.87
2018-06-30T09:33:54.431Z,7.50
2018-06-30T09:36:22.612Z,6.80
2018-06-30T09:38:51.143Z,7.23
2018-06-30T09:41:19.768Z,6.40
2018-06-30T09:43:48.232Z,7.83
2018-06-30T09:46:16.793Z,6.27
2018-06-30T09:48:45.328Z,5.90
2018-06-30T09:51:13.832Z,6.20
2018-06-30T09:53:42.355Z,6.43
2018-06-30T09:56:10.857Z,6.73
2018-06-30T09:58:39.357Z,6.00
2018-06-30T10:01:09.284Z,6.80
2018-06-30T10:03:38.805Z,6.30
2018-06-30T10:06:07.436Z,6.70
2018-06-30T10:08:36.079Z,5.90
2018-06-30T10:11:04.738Z,6.13
2018-06-30T10:13:33.410Z,5.80
2018-06-30T10:16:01.927Z,5.50
2018-06-30T10:18:30.645Z,5.23
2018-06-30T10:20:59.204Z,6.03
2018-06-30T10:23:27.852Z,6.40
2018-06-30T10:25:56.419Z,4.87
2018-06-30T10:28:24.922Z,4.37
2018-06-30T10:30:53.402Z,4.53
2018-06-30T10:33:21.919Z,4.53
2018-06-30T10:35:50.472Z,4.27
2018-06-30T10:38:19.213Z,5.73
2018-06-30T10:40:47.795Z,6.63
2018-06-30T10:43:16.329Z,4.50
2018-06-30T10:45:44.836Z,3.83
2018-06-30T10:48:13.425Z,4.70
2018-06-30T10:50:41.986Z,4.13
2018-06-30T10:53:10.462Z,3.60
2018-06-30T10:55:39.003Z,4.10
2018-06-30T10:58:07.495Z,3.27
2018-06-30T11:00:36.102Z,5.60
2018-06-30T11:03:04.919Z,4.17
2018-06-30T11:05:33.421Z,4.27
2018-06-30T11:08:01.937Z,3.47
2018-06-30T11:10:30.435Z,3.33
2018-06-30T11:12:58.939Z,3.00
2018-06-30T11:15:27.425Z,3.63
2018-06-30T11:17:55.944Z,3.90
2018-06-30T11:20:24.540Z,3.80
2018-06-30T11:22:53.062Z,3.57
2018-06-30T11:25:24.784Z,3.50
2018-06-30T11:27:53.306Z,3.20
2018-06-30T11:30:21.807Z,3.33
2018-06-30T11:32:50.290Z,3.10
2018-06-30T11:35:18.852Z,3.80
2018-06-30T11:37:47.295Z,3.47
2018-06-30T11:40:15.906Z,3.57
2018-06-30T11:42:44.562Z,2.73
2018-06-30T11:45:13.197Z,3.60
2018-06-30T11:47:41.678Z,2.90
2018-06-30T11:50:10.276Z,3.37
2018-06-30T11:52:38.751Z,3.27
2018-06-30T11:55:07.269Z,3.40
2018-06-30T11:57:35.762Z,3.87
2018-06-30T12:00:05.187Z,3.50
2018-06-30T12:02:33.684Z,3.50
2018-06-30T12:05:02.203Z,4.20
2018-06-30T12:07:30.690Z,3.57
2018-06-30T12:09:59.276Z,3.83
2018-06-30T12:12:27.760Z,4.07
2018-06-30T12:14:56.326Z,3.73
2018-06-30T12:17:24.958Z,3.20
2018-06-30T12:19:53.640Z,3.87
2018-06-30T12:22:22.173Z,3.93
2018-06-30T12:24:50.646Z,3.83
2018-06-30T12:27:19.145Z,3.50
2018-06-30T12:29:47.793Z,3.67
2018-06-30T12:32:16.330Z,3.07
2018-06-30T12:34:44.761Z,3.77
2018-06-30T12:37:13.252Z,3.53
2018-06-30T12:39:41.773Z,3.90
2018-06-30T12:42:10.269Z,3.43
2018-06-30T12:44:38.736Z,3.47
2018-06-30T12:47:07.267Z,3.57
2018-06-30T12:49:35.748Z,3.67
2018-06-30T12:52:04.276Z,3.57
2018-06-30T12:54:33.089Z,3.87
2018-06-30T12:57:01.451Z,3.20
2018-06-30T12:59:30.256Z,3.50
2018-06-30T13:01:58.755Z,5.40
2018-06-30T13:04:27.249Z,3.60
2018-06-30T13:06:55.758Z,3.47
2018-06-30T13:09:24.371Z,7.53
2018-06-30T13:11:53.003Z,3.77
2018-06-30T13:14:21.511Z,3.70
2018-06-30T13:16:49.985Z,3.70
2018-06-30T13:19:18.567Z,3.93
2018-06-30T13:21:47.216Z,3.40
2018-06-30T13:24:15.904Z,5.03
2018-06-30T13:26:44.075Z,4.23
2018-06-30T13:29:12.573Z,4.63
2018-06-30T13:31:41.054Z,3.53
2018-06-30T13:34:09.796Z,3.93
2018-06-30T13:36:38.187Z,4.40
2018-06-30T13:39:10.967Z,3.30
2018-06-30T13:41:39.510Z,3.37
2018-06-30T13:44:08.095Z,3.10
2018-06-30T13:46:36.636Z,3.17
2018-06-30T13:49:05.755Z,4.50
2018-06-30T13:51:34.700Z,4.77
2018-06-30T13:54:03.407Z,3.97
2018-06-30T13:56:32.054Z,3.13
2018-06-30T13:59:00.530Z,8.40
2018-06-30T14:01:29.075Z,4.23
2018-06-30T14:03:57.597Z,3.07
2018-06-30T14:06:26.056Z,3.90
2018-06-30T14:08:54.604Z,3.10
2018-06-30T14:11:23.498Z,3.50
2018-06-30T14:13:52.497Z,3.93
2018-06-30T14:16:21.073Z,3.10
2018-06-30T14:18:51.434Z,3.57
2018-06-30T14:21:19.902Z,3.40
2018-06-30T14:23:48.744Z,3.23
2018-06-30T14:26:17.433Z,3.40
2018-06-30T14:28:45.929Z,4.50
2018-06-30T14:31:14.960Z,3.57
2018-06-30T14:33:43.436Z,3.47
2018-06-30T14:36:12.222Z,4.90
2018-06-30T14:38:40.746Z,3.43
2018-06-30T14:41:09.451Z,3.43
2018-06-30T14:43:38.012Z,3.40
2018-06-30T14:46:06.821Z,3.97
2018-06-30T14:48:35.403Z,3.77
2018-06-30T14:51:03.953Z,3.43
2018-06-30T14:53:32.429Z,4.23
2018-06-30T14:56:00.941Z,4.57
2018-06-30T14:58:29.474Z,4.07
2018-06-30T15:00:58.115Z,3.70
2018-06-30T15:03:26.825Z,4.17
2018-06-30T15:05:55.326Z,4.00
2018-06-30T15:08:23.803Z,3.83
2018-06-30T15:10:52.345Z,5.93
2018-06-30T15:13:20.856Z,2.87
2018-06-30T15:15:49.347Z,3.67
2018-06-30T15:18:18.182Z,3.30
2018-06-30T15:20:46.821Z,4.00
2018-06-30T15:23:15.441Z,3.07
2018-06-30T15:25:44.184Z,3.63
2018-06-30T15:28:12.770Z,3.73
2018-06-30T15:30:41.258Z,3.80
2018-06-30T15:33:09.821Z,3.77
2018-06-30T15:35:38.383Z,3.77
2018-06-30T15:38:06.897Z,4.33
2018-06-30T15:40:35.400Z,3.93
2018-06-30T15:43:03.983Z,4.13
2018-06-30T15:45:32.523Z,3.57
2018-06-30T15:48:01.099Z,4.00
2018-06-30T15:50:29.603Z,3.93
2018-06-30T15:52:58.082Z,3.87
2018-06-30T15:55:26.806Z,3.70
2018-06-30T15:57:55.304Z,4.50
2018-06-30T16:00:24.070Z,4.17
2018-06-30T16:02:52.539Z,4.87
2018-06-30T16:05:21.069Z,5.90
2018-06-30T16:07:49.556Z,4.97
2018-06-30T16:10:18.060Z,4.57
2018-06-30T16:12:46.792Z,4.13
2018-06-30T16:15:15.332Z,4.77
2018-06-30T16:17:44.007Z,4.80
2018-06-30T16:20:12.489Z,7.67
2018-06-30T16:22:41.001Z,9.03
2018-06-30T16:25:09.568Z,4.20
2018-06-30T16:27:38.015Z,9.60
2018-06-30T16:30:07.879Z,4.80
2018-06-30T16:32:36.295Z,25.00
2018-06-30T16:35:05.333Z,5.10
2018-06-30T16:37:33.925Z,7.93
2018-06-30T16:40:02.499Z,5.60
2018-06-30T16:42:31.131Z,5.30
2018-06-30T16:44:59.627Z,5.77
2018-06-30T16:47:28.272Z,16.17
2018-06-30T16:49:56.740Z,4.90
2018-06-30T16:52:25.286Z,5.00
2018-06-30T16:54:53.857Z,8.60
2018-06-30T16:57:22.384Z,5.40
2018-06-30T16:59:51.039Z,17.90
2018-06-30T17:02:19.577Z,8.37
2018-06-30T17:04:49.103Z,6.00
2018-06-30T17:07:17.574Z,4.60
2018-06-30T17:09:46.126Z,4.80
2018-06-30T17:12:14.585Z,5.27
2018-06-30T17:14:43.092Z,4.40
2018-06-30T17:17:11.554Z,6.80
2018-06-30T17:19:39.717Z,4.87
2018-06-30T17:22:07.990Z,5.47
2018-06-30T17:24:36.185Z,7.73
2018-06-30T17:27:04.692Z,4.43
2018-06-30T17:29:33.181Z,4.77
2018-06-30T17:32:01.623Z,4.70
2018-06-30T17:34:29.884Z,5.00
2018-06-30T17:36:58.341Z,4.30
2018-06-30T17:39:26.913Z,4.73
2018-06-30T17:41:55.389Z,5.53
2018-06-30T17:44:24.147Z,4.00
2018-06-30T17:46:52.667Z,5.90
2018-06-30T17:49:21.175Z,5.60
2018-06-30T17:51:49.698Z,4.27
2018-06-30T17:54:18.195Z,6.27
2018-06-30T17:56:46.780Z,4.67
2018-06-30T17:59:15.262Z,4.70
2018-06-30T18:01:43.810Z,4.50
2018-06-30T18:04:12.337Z,4.47
2018-06-30T18:06:40.894Z,4.27
2018-06-30T18:09:11.118Z,5.30
2018-06-30T18:11:40.284Z,5.30
2018-06-30T18:14:09.463Z,5.43
2018-06-30T18:16:37.951Z,4.50
2018-06-30T18:19:06.643Z,4.57
2018-06-30T18:21:35.264Z,5.57
2018-06-30T18:24:03.404Z,4.47
2018-06-30T18:26:32.015Z,4.83
2018-06-30T18:29:00.176Z,5.57
2018-06-30T18:31:28.704Z,6.10
2018-06-30T18:33:57.156Z,7.37
2018-06-30T18:36:25.768Z,4.10
2018-06-30T18:38:54.266Z,4.53
2018-06-30T18:41:22.946Z,4.43
2018-06-30T18:43:51.527Z,4.73
2018-06-30T18:46:20.003Z,6.00
2018-06-30T18:48:48.618Z,8.00
2018-06-30T18:51:17.175Z,3.73
2018-06-30T18:53:45.945Z,11.17
2018-06-30T18:56:14.731Z,4.13
2018-06-30T18:58:43.198Z,4.33
2018-06-30T19:01:11.676Z,4.80
2018-06-30T19:03:40.356Z,5.97
2018-06-30T19:06:08.868Z,4.77
2018-06-30T19:08:37.472Z,5.43
2018-06-30T19:11:06.048Z,7.57
2018-06-30T19:13:34.612Z,4.67
2018-06-30T19:16:03.305Z,5.07
2018-06-30T19:18:31.729Z,4.17
2018-06-30T19:21:00.231Z,4.70
2018-06-30T19:23:28.739Z,4.00
2018-06-30T19:25:57.241Z,4.43
2018-06-30T19:28:25.887Z,4.07
2018-06-30T19:30:54.368Z,4.67
2018-06-30T19:33:23.761Z,3.70
2018-06-30T19:35:52.405Z,3.90
2018-06-30T19:38:20.987Z,4.80
2018-06-30T19:40:49.583Z,7.90
2018-06-30T19:43:18.113Z,5.10
2018-06-30T19:45:46.604Z,4.00
2018-06-30T19:48:15.083Z,5.17
2018-06-30T19:50:43.801Z,6.83
2018-06-30T19:53:12.688Z,4.73
2018-06-30T19:55:41.248Z,4.37
2018-06-30T19:58:09.786Z,4.27
2018-06-30T20:00:38.271Z,4.10
2018-06-30T20:03:07.011Z,4.33
2018-06-30T20:05:35.561Z,8.33
2018-06-30T20:08:04.100Z,4.27
2018-06-30T20:10:32.747Z,4.73
2018-06-30T20:13:01.273Z,3.90
2018-06-30T20:15:29.829Z,7.43
2018-06-30T20:17:58.326Z,4.20
2018-06-30T20:20:26.838Z,3.57
2018-06-30T20:22:55.673Z,4.30
2018-06-30T20:25:24.346Z,3.80
2018-06-30T20:27:52.798Z,4.43
2018-06-30T20:30:21.409Z,4.13
2018-06-30T20:32:49.896Z,3.63
2018-06-30T20:35:18.377Z,3.50
2018-06-30T20:37:47.043Z,4.67
2018-06-30T20:40:15.720Z,4.50
2018-06-30T20:42:44.227Z,3.37
2018-06-30T20:45:12.825Z,3.60
2018-06-30T20:47:41.372Z,3.03
2018-06-30T20:50:09.912Z,3.37
2018-06-30T20:52:38.400Z,4.00
2018-06-30T20:55:07.121Z,3.57
2018-06-30T20:57:35.624Z,2.70
2018-06-30T21:00:04.703Z,2.80
2018-06-30T21:02:33.230Z,2.70
2018-06-30T21:05:01.763Z,2.50
2018-06-30T21:07:30.290Z,2.37
2018-06-30T21:09:58.912Z,2.37
2018-06-30T21:12:27.454Z,3.63
2018-06-30T21:14:56.029Z,4.00
2018-06-30T21:17:24.532Z,1.80
2018-06-30T21:19:53.025Z,2.80
2018-06-30T21:22:21.591Z,2.00
2018-06-30T21:24:50.388Z,1.50
2018-06-30T21:27:18.916Z,2.50
2018-06-30T21:29:47.444Z,4.73
2018-06-30T21:32:15.962Z,2.17
2018-06-30T21:34:44.562Z,1.70
2018-06-30T21:37:13.195Z,4.40
2018-06-30T21:39:41.664Z,2.00
2018-06-30T21:42:10.125Z,1.90
2018-06-30T21:44:38.641Z,1.80
2018-06-30T21:47:07.153Z,3.93
2018-06-30T21:49:35.441Z,1.70
2018-06-30T21:52:04.001Z,3.53
2018-06-30T21:54:32.767Z,4.73
2018-06-30T21:57:01.295Z,1.60
2018-06-30T21:59:29.955Z,1.77
2018-06-30T22:01:58.466Z,1.30
2018-06-30T22:04:27.036Z,1.80
2018-06-30T22:06:55.520Z,1.93
2018-06-30T22:09:24.168Z,1.63
2018-06-30T22:11:52.976Z,1.40
2018-06-30T22:14:21.627Z,2.70
2018-06-30T22:16:50.147Z,1.60
2018-06-30T22:19:18.627Z,1.20
2018-06-30T22:21:47.108Z,2.43
2018-06-30T22:24:15.575Z,1.30
2018-06-30T22:26:44.295Z,1.60
2018-06-30T22:29:12.839Z,1.10
2018-06-30T22:31:41.411Z,2.47
2018-06-30T22:34:09.883Z,1.30
2018-06-30T22:36:38.843Z,3.53
2018-06-30T22:39:09.801Z,1.03
2018-06-30T22:41:39.154Z,1.40
2018-06-30T22:44:07.867Z,1.17
2018-06-30T22:46:36.669Z,2.07
2018-06-30T22:49:05.218Z,1.43
2018-06-30T22:51:33.695Z,1.37
2018-06-30T22:54:02.179Z,1.03
2018-06-30T22:56:30.670Z,2.13
2018-06-30T22:58:59.257Z,1.07
2018-06-30T23:01:27.751Z,1.00
2018-06-30T23:03:56.394Z,0.90
2018-06-30T23:06:24.902Z,0.97
2018-06-30T23:08:53.378Z,0.93
2018-06-30T23:11:23.007Z,2.40
2018-06-30T23:13:51.837Z,0.93
2018-06-30T23:16:20.563Z,0.93
2018-06-30T23:18:49.182Z,1.33
2018-06-30T23:21:17.663Z,1.00
2018-06-30T23:23:46.225Z,1.33
2018-06-30T23:26:14.698Z,0.90
2018-06-30T23:28:43.199Z,3.00
2018-06-30T23:31:11.701Z,1.30
2018-06-30T23:33:40.230Z,2.60
2018-06-30T23:36:08.858Z,1.13
2018-06-30T23:38:37.669Z,1.10
2018-06-30T23:41:06.188Z,1.13
2018-06-30T23:43:34.657Z,1.10
2018-06-30T23:46:03.146Z,1.00
2018-06-30T23:48:31.762Z,2.20
2018-06-30T23:51:00.278Z,0.90
2018-06-30T23:53:28.840Z,1.90
2018-06-30T23:55:59.215Z,1.40
2018-06-30T23:58:27.751Z,1.33
